sensor_id;sensor_type;location;lat;lon;timestamp;temperature;humidity
11083;DHT22;5595;50.186;8.468;2023-04-01T00:01:13;9.90;99.90
11083;DHT22;5595;50.186;8.468;2023-04-01T00:03:42;9.80;99.90
11083;DHT22;5595;50.186;8.468;2023-04-01T00:06:09;9.90;99.90
11083;DHT22;5595;50.186;8.468;2023-04-01T00:08:37;9.80;99.90
11083;DHT22;5595;50.186;8.468;2023-04-01T00:11:04;9.80;99.90
11083;DHT22;5595;50.186;8.468;2023-04-01T00:13:31;9.80;99.90
11083;DHT22;5595;50.186;8.468;2023-04-01T00:15:59;9.80;99.90
11083;DHT22;5595;50.186;8.468;2023-04-01T00:18:27;9.90;99.90
11083;DHT22;5595;50.186;8.468;2023-04-01T00:20:55;9.80;99.90
11083;DHT22;5595;50.186;8.468;2023-04-01T00:23:22;9.80;99.90
11083;DHT22;5595;50.186;8.468;2023-04-01T00:25:49;9.90;99.90
11083;DHT22;5595;50.186;8.468;2023-04-01T00:28:19;9.70;99.90
11083;DHT22;5595;50.186;8.468;2023-04-01T00:30:46;9.80;99.90
11083;DHT22;5595;50.186;8.468;2023-04-01T00:33:13;9.90;99.90
11083;DHT22;5595;50.186;8.468;2023-04-01T00:35:40;9.90;99.90
11083;DHT22;5595;50.186;8.468;2023-04-01T00:38:09;9.80;99.90
11083;DHT22;5595;50.186;8.468;2023-04-01T00:40:38;9.80;99.90
11083;DHT22;5595;50.186;8.468;2023-04-01T00:43:11;9.80;99.90
11083;DHT22;5595;50.186;8.468;2023-04-01T00:45:39;9.80;99.90
11083;DHT22;5595;50.186;8.468;2023-04-01T00:48:10;9.60;99.90
11083;DHT22;5595;50.186;8.468;2023-04-01T00:50:39;9.80;99.90
11083;DHT22;5595;50.186;8.468;2023-04-01T00:53:08;9.80;99.90
11083;DHT22;5595;50.186;8.468;2023-04-01T00:55:38;9.60;99.90
11083;DHT22;5595;50.186;8.468;2023-04-01T00:58:08;9.80;99.90
11083;DHT22;5595;50.186;8.468;2023-04-01T01:00:38;9.80;99.90
11083;DHT22;5595;50.186;8.468;2023-04-01T01:03:05;9.80;99.90
11083;DHT22;5595;50.186;8.468;2023-04-01T01:05:41;9.80;99.90
11083;DHT22;5595;50.186;8.468;2023-04-01T01:08:22;9.80;99.90
11083;DHT22;5595;50.186;8.468;2023-04-01T01:10:54;9.70;99.90
11083;DHT22;5595;50.186;8.468;2023-04-01T01:13:25;9.70;99.90
11083;DHT22;5595;50.186;8.468;2023-04-01T01:15:57;9.70;99.90
11083;DHT22;5595;50.186;8.468;2023-04-01T01:18:30;9.70;99.90
11083;DHT22;5595;50.186;8.468;2023-04-01T01:21:30;9.70;99.90
11083;DHT22;5595;50.186;8.468;2023-04-01T01:24:11;9.70;99.90
11083;DHT22;5595;50.186;8.468;2023-04-01T01:26:58;9.80;99.90
11083;DHT22;5595;50.186;8.468;2023-04-01T01:29:48;9.70;99.90
11083;DHT22;5595;50.186;8.468;2023-04-01T01:32:41;9.60;99.90
11083;DHT22;5595;50.186;8.468;2023-04-01T01:35:25;9.60;99.90
11083;DHT22;5595;50.186;8.468;2023-04-01T01:37:56;9.60;99.90
11083;DHT22;5595;50.186;8.468;2023-04-01T01:40:25;9.70;99.90
11083;DHT22;5595;50.186;8.468;2023-04-01T01:42:56;9.60;99.90
11083;DHT22;5595;50.186;8.468;2023-04-01T01:45:25;9.80;99.90
11083;DHT22;5595;50.186;8.468;2023-04-01T01:47:53;9.60;99.90
11083;DHT22;5595;50.186;8.468;2023-04-01T01:50:24;9.70;99.90
11083;DHT22;5595;50.186;8.468;2023-04-01T01:53:01;9.60;99.90
11083;DHT22;5595;50.186;8.468;2023-04-01T01:55:29;9.60;99.90
11083;DHT22;5595;50.186;8.468;2023-04-01T01:58:00;9.60;99.90
11083;DHT22;5595;50.186;8.468;2023-04-01T02:00:29;9.60;99.90
11083;DHT22;5595;50.186;8.468;2023-04-01T02:02:57;9.60;99.90
11083;DHT22;5595;50.186;8.468;2023-04-01T02:05:27;9.60;99.90
11083;DHT22;5595;50.186;8.468;2023-04-01T02:08:00;9.60;99.90
11083;DHT22;5595;50.186;8.468;2023-04-01T02:10:29;9.70;99.90
11083;DHT22;5595;50.186;8.468;2023-04-01T02:13:00;9.60;99.90
11083;DHT22;5595;50.186;8.468;2023-04-01T02:15:30;9.60;99.90
11083;DHT22;5595;50.186;8.468;2023-04-01T02:17:59;9.60;99.90
11083;DHT22;5595;50.186;8.468;2023-04-01T02:20:28;9.60;99.90
11083;DHT22;5595;50.186;8.468;2023-04-01T02:22:58;9.60;99.90
11083;DHT22;5595;50.186;8.468;2023-04-01T02:25:28;9.60;99.90
11083;DHT22;5595;50.186;8.468;2023-04-01T02:27:58;9.60;99.90
11083;DHT22;5595;50.186;8.468;2023-04-01T02:30:27;9.50;99.90
11083;DHT22;5595;50.186;8.468;2023-04-01T02:32:56;9.60;99.90
11083;DHT22;5595;50.186;8.468;2023-04-01T02:35:23;9.50;99.90
11083;DHT22;5595;50.186;8.468;2023-04-01T02:37:54;9.50;99.90
11083;DHT22;5595;50.186;8.468;2023-04-01T02:40:21;9.50;99.90
11083;DHT22;5595;50.186;8.468;2023-04-01T02:42:48;9.50;99.90
11083;DHT22;5595;50.186;8.468;2023-04-01T02:45:15;9.50;99.90
11083;DHT22;5595;50.186;8.468;2023-04-01T02:47:41;9.40;99.90
11083;DHT22;5595;50.186;8.468;2023-04-01T02:50:09;9.50;99.90
11083;DHT22;5595;50.186;8.468;2023-04-01T02:52:36;9.50;99.90
11083;DHT22;5595;50.186;8.468;2023-04-01T02:55:07;9.40;99.90
11083;DHT22;5595;50.186;8.468;2023-04-01T02:57:33;9.30;99.90
11083;DHT22;5595;50.186;8.468;2023-04-01T03:00:00;9.50;99.90
11083;DHT22;5595;50.186;8.468;2023-04-01T03:02:28;9.30;99.90
11083;DHT22;5595;50.186;8.468;2023-04-01T03:04:54;9.30;99.90
11083;DHT22;5595;50.186;8.468;2023-04-01T03:07:21;9.40;99.90
11083;DHT22;5595;50.186;8.468;2023-04-01T03:09:48;9.30;99.90
11083;DHT22;5595;50.186;8.468;2023-04-01T03:12:17;9.30;99.90
11083;DHT22;5595;50.186;8.468;2023-04-01T03:14:44;9.30;99.90
11083;DHT22;5595;50.186;8.468;2023-04-01T03:17:11;9.30;99.90
11083;DHT22;5595;50.186;8.468;2023-04-01T03:19:38;9.30;99.90
11083;DHT22;5595;50.186;8.468;2023-04-01T03:22:05;9.30;99.90
11083;DHT22;5595;50.186;8.468;2023-04-01T03:24:32;9.40;99.90
11083;DHT22;5595;50.186;8.468;2023-04-01T03:26:58;9.40;99.90
11083;DHT22;5595;50.186;8.468;2023-04-01T03:29:27;9.20;99.90
11083;DHT22;5595;50.186;8.468;2023-04-01T03:31:53;9.30;99.90
11083;DHT22;5595;50.186;8.468;2023-04-01T03:34:23;9.30;99.90
11083;DHT22;5595;50.186;8.468;2023-04-01T03:36:53;9.30;99.90
11083;DHT22;5595;50.186;8.468;2023-04-01T03:39:20;9.20;99.90
11083;DHT22;5595;50.186;8.468;2023-04-01T03:41:47;9.20;99.90
11083;DHT22;5595;50.186;8.468;2023-04-01T03:44:14;9.20;99.90
11083;DHT22;5595;50.186;8.468;2023-04-01T03:46:42;9.20;99.90
11083;DHT22;5595;50.186;8.468;2023-04-01T03:49:10;9.20;99.90
11083;DHT22;5595;50.186;8.468;2023-04-01T03:51:37;9.40;99.90
11083;DHT22;5595;50.186;8.468;2023-04-01T03:54:05;9.30;99.90
11083;DHT22;5595;50.186;8.468;2023-04-01T03:56:32;9.20;99.90
11083;DHT22;5595;50.186;8.468;2023-04-01T03:59:02;9.10;99.90
11083;DHT22;5595;50.186;8.468;2023-04-01T04:01:30;9.20;99.90
11083;DHT22;5595;50.186;8.468;2023-04-01T04:03:58;9.20;99.90
11083;DHT22;5595;50.186;8.468;2023-04-01T04:06:26;9.20;99.90
11083;DHT22;5595;50.186;8.468;2023-04-01T04:08:53;9.20;99.90
11083;DHT22;5595;50.186;8.468;2023-04-01T04:11:21;9.20;99.90
11083;DHT22;5595;50.186;8.468;2023-04-01T04:13:48;9.20;99.90
11083;DHT22;5595;50.186;8.468;2023-04-01T04:16:16;9.20;99.90
11083;DHT22;5595;50.186;8.468;2023-04-01T04:18:46;9.20;99.90
11083;DHT22;5595;50.186;8.468;2023-04-01T04:21:15;9.20;99.90
11083;DHT22;5595;50.186;8.468;2023-04-01T04:23:42;9.20;99.90
11083;DHT22;5595;50.186;8.468;2023-04-01T04:26:11;9.20;99.90
11083;DHT22;5595;50.186;8.468;2023-04-01T04:28:38;9.20;99.90
11083;DHT22;5595;50.186;8.468;2023-04-01T04:31:06;9.20;99.90
11083;DHT22;5595;50.186;8.468;2023-04-01T04:33:33;9.10;99.90
11083;DHT22;5595;50.186;8.468;2023-04-01T04:36:00;9.10;99.90
11083;DHT22;5595;50.186;8.468;2023-04-01T04:38:29;9.10;99.90
11083;DHT22;5595;50.186;8.468;2023-04-01T04:40:56;9.10;99.90
11083;DHT22;5595;50.186;8.468;2023-04-01T04:43:23;9.20;99.90
11083;DHT22;5595;50.186;8.468;2023-04-01T04:45:51;9.10;99.90
11083;DHT22;5595;50.186;8.468;2023-04-01T04:48:18;9.10;99.90
11083;DHT22;5595;50.186;8.468;2023-04-01T04:50:46;9.10;99.90
11083;DHT22;5595;50.186;8.468;2023-04-01T04:53:14;9.10;99.90
11083;DHT22;5595;50.186;8.468;2023-04-01T04:55:45;9.10;99.90
11083;DHT22;5595;50.186;8.468;2023-04-01T04:58:12;9.10;99.90
11083;DHT22;5595;50.186;8.468;2023-04-01T05:00:39;9.10;99.90
11083;DHT22;5595;50.186;8.468;2023-04-01T05:03:06;9.00;99.90
11083;DHT22;5595;50.186;8.468;2023-04-01T05:05:33;8.90;99.90
11083;DHT22;5595;50.186;8.468;2023-04-01T05:08:00;8.90;99.90
11083;DHT22;5595;50.186;8.468;2023-04-01T05:10:27;8.90;99.90
11083;DHT22;5595;50.186;8.468;2023-04-01T05:12:55;9.00;99.90
11083;DHT22;5595;50.186;8.468;2023-04-01T05:15:22;8.80;99.90
11083;DHT22;5595;50.186;8.468;2023-04-01T05:17:49;9.00;99.90
11083;DHT22;5595;50.186;8.468;2023-04-01T05:20:16;9.00;99.90
11083;DHT22;5595;50.186;8.468;2023-04-01T05:22:44;8.90;99.90
11083;DHT22;5595;50.186;8.468;2023-04-01T05:25:10;8.90;99.90
11083;DHT22;5595;50.186;8.468;2023-04-01T05:27:37;9.00;99.90
11083;DHT22;5595;50.186;8.468;2023-04-01T05:30:07;8.90;99.90
11083;DHT22;5595;50.186;8.468;2023-04-01T05:32:34;8.90;99.90
11083;DHT22;5595;50.186;8.468;2023-04-01T05:35:01;8.90;99.90
11083;DHT22;5595;50.186;8.468;2023-04-01T05:37:27;9.00;99.90
11083;DHT22;5595;50.186;8.468;2023-04-01T05:39:54;8.90;99.90
11083;DHT22;5595;50.186;8.468;2023-04-01T05:42:21;8.90;99.90
11083;DHT22;5595;50.186;8.468;2023-04-01T05:44:48;8.80;99.90
11083;DHT22;5595;50.186;8.468;2023-04-01T05:47:16;8.80;99.90
11083;DHT22;5595;50.186;8.468;2023-04-01T05:49:43;8.70;99.90
11083;DHT22;5595;50.186;8.468;2023-04-01T05:52:10;8.90;99.90
11083;DHT22;5595;50.186;8.468;2023-04-01T05:54:37;8.80;99.90
11083;DHT22;5595;50.186;8.468;2023-04-01T05:57:04;8.80;99.90
11083;DHT22;5595;50.186;8.468;2023-04-01T05:59:31;8.80;99.90
11083;DHT22;5595;50.186;8.468;2023-04-01T06:01:58;8.80;99.90
11083;DHT22;5595;50.186;8.468;2023-04-01T06:04:28;8.80;99.90
11083;DHT22;5595;50.186;8.468;2023-04-01T06:06:58;8.60;99.90
11083;DHT22;5595;50.186;8.468;2023-04-01T06:09:27;8.80;99.90
11083;DHT22;5595;50.186;8.468;2023-04-01T06:12:29;8.80;99.90
11083;DHT22;5595;50.186;8.468;2023-04-01T06:15:12;8.80;99.90
11083;DHT22;5595;50.186;8.468;2023-04-01T06:17:51;8.80;99.90
11083;DHT22;5595;50.186;8.468;2023-04-01T06:20:24;8.80;99.90
11083;DHT22;5595;50.186;8.468;2023-04-01T06:23:07;8.80;99.90
11083;DHT22;5595;50.186;8.468;2023-04-01T06:26:06;8.80;99.90
11083;DHT22;5595;50.186;8.468;2023-04-01T06:29:02;8.80;99.90
11083;DHT22;5595;50.186;8.468;2023-04-01T06:31:52;8.80;99.90
11083;DHT22;5595;50.186;8.468;2023-04-01T06:34:52;8.80;99.90
11083;DHT22;5595;50.186;8.468;2023-04-01T06:37:40;8.80;99.90
11083;DHT22;5595;50.186;8.468;2023-04-01T06:43:20;8.80;99.90
11083;DHT22;5595;50.186;8.468;2023-04-01T06:45:55;8.90;99.90
11083;DHT22;5595;50.186;8.468;2023-04-01T06:48:36;8.90;99.90
11083;DHT22;5595;50.186;8.468;2023-04-01T06:51:14;8.90;99.90
11083;DHT22;5595;50.186;8.468;2023-04-01T06:53:48;8.90;99.90
11083;DHT22;5595;50.186;8.468;2023-04-01T06:56:21;8.90;99.90
11083;DHT22;5595;50.186;8.468;2023-04-01T06:58:53;8.90;99.90
11083;DHT22;5595;50.186;8.468;2023-04-01T07:01:23;8.90;99.90
11083;DHT22;5595;50.186;8.468;2023-04-01T07:03:57;8.90;99.90
11083;DHT22;5595;50.186;8.468;2023-04-01T07:06:28;8.90;99.90
11083;DHT22;5595;50.186;8.468;2023-04-01T07:09:00;8.90;99.90
11083;DHT22;5595;50.186;8.468;2023-04-01T07:11:32;9.00;99.90
11083;DHT22;5595;50.186;8.468;2023-04-01T07:14:01;8.90;99.90
11083;DHT22;5595;50.186;8.468;2023-04-01T07:16:31;9.00;99.90
11083;DHT22;5595;50.186;8.468;2023-04-01T07:19:05;9.00;99.90
11083;DHT22;5595;50.186;8.468;2023-04-01T07:21:41;9.10;99.90
11083;DHT22;5595;50.186;8.468;2023-04-01T07:24:15;9.10;99.90
11083;DHT22;5595;50.186;8.468;2023-04-01T07:26:43;9.20;99.90
11083;DHT22;5595;50.186;8.468;2023-04-01T07:29:13;9.00;99.90
11083;DHT22;5595;50.186;8.468;2023-04-01T07:32:05;9.20;99.90
11083;DHT22;5595;50.186;8.468;2023-04-01T07:34:41;9.30;99.90
11083;DHT22;5595;50.186;8.468;2023-04-01T07:37:14;9.40;99.90
11083;DHT22;5595;50.186;8.468;2023-04-01T07:39:49;9.40;99.90
11083;DHT22;5595;50.186;8.468;2023-04-01T07:42:26;9.50;99.90
11083;DHT22;5595;50.186;8.468;2023-04-01T07:45:00;9.50;99.90
11083;DHT22;5595;50.186;8.468;2023-04-01T07:47:39;9.60;99.90
11083;DHT22;5595;50.186;8.468;2023-04-01T07:50:18;9.60;99.90
11083;DHT22;5595;50.186;8.468;2023-04-01T07:52:54;9.60;99.90
11083;DHT22;5595;50.186;8.468;2023-04-01T07:55:30;9.60;99.90
11083;DHT22;5595;50.186;8.468;2023-04-01T07:58:06;9.50;99.90
11083;DHT22;5595;50.186;8.468;2023-04-01T08:00:44;9.60;99.90
11083;DHT22;5595;50.186;8.468;2023-04-01T08:03:27;9.60;99.90
11083;DHT22;5595;50.186;8.468;2023-04-01T08:06:01;9.60;99.90
11083;DHT22;5595;50.186;8.468;2023-04-01T08:08:39;9.60;99.90
11083;DHT22;5595;50.186;8.468;2023-04-01T08:11:24;9.50;99.90
11083;DHT22;5595;50.186;8.468;2023-04-01T08:14:02;9.50;99.90
11083;DHT22;5595;50.186;8.468;2023-04-01T08:16:35;9.50;99.90
11083;DHT22;5595;50.186;8.468;2023-04-01T08:19:18;9.50;99.90
11083;DHT22;5595;50.186;8.468;2023-04-01T08:21:49;9.60;99.90
11083;DHT22;5595;50.186;8.468;2023-04-01T08:24:22;9.60;99.90
11083;DHT22;5595;50.186;8.468;2023-04-01T08:26:55;9.60;99.90
11083;DHT22;5595;50.186;8.468;2023-04-01T08:29:26;9.70;99.90
11083;DHT22;5595;50.186;8.468;2023-04-01T08:32:00;9.80;99.90
11083;DHT22;5595;50.186;8.468;2023-04-01T08:34:34;9.80;99.90
11083;DHT22;5595;50.186;8.468;2023-04-01T08:37:05;9.90;99.90
11083;DHT22;5595;50.186;8.468;2023-04-01T08:39:36;9.90;99.90
11083;DHT22;5595;50.186;8.468;2023-04-01T08:42:27;9.90;99.90
11083;DHT22;5595;50.186;8.468;2023-04-01T08:54:35;10.00;99.90
11083;DHT22;5595;50.186;8.468;2023-04-01T08:57:11;10.00;99.90
11083;DHT22;5595;50.186;8.468;2023-04-01T08:59:53;10.00;99.90
11083;DHT22;5595;50.186;8.468;2023-04-01T09:02:53;10.20;99.90
11083;DHT22;5595;50.186;8.468;2023-04-01T09:05:36;10.00;99.90
11083;DHT22;5595;50.186;8.468;2023-04-01T09:08:35;10.10;99.90
11083;DHT22;5595;50.186;8.468;2023-04-01T09:11:14;10.00;99.90
11083;DHT22;5595;50.186;8.468;2023-04-01T09:13:59;10.00;99.90
11083;DHT22;5595;50.186;8.468;2023-04-01T09:19:36;10.10;99.90
11083;DHT22;5595;50.186;8.468;2023-04-01T09:22:43;10.10;99.90
11083;DHT22;5595;50.186;8.468;2023-04-01T09:25:30;10.20;99.90
11083;DHT22;5595;50.186;8.468;2023-04-01T09:28:10;10.10;99.90
11083;DHT22;5595;50.186;8.468;2023-04-01T09:31:15;10.20;99.90
11083;DHT22;5595;50.186;8.468;2023-04-01T09:34:23;10.40;99.90
11083;DHT22;5595;50.186;8.468;2023-04-01T09:37:06;10.50;99.90
11083;DHT22;5595;50.186;8.468;2023-04-01T09:39:36;10.50;99.90
11083;DHT22;5595;50.186;8.468;2023-04-01T09:42:15;10.60;99.90
11083;DHT22;5595;50.186;8.468;2023-04-01T09:44:54;10.50;99.90
11083;DHT22;5595;50.186;8.468;2023-04-01T09:47:37;10.50;99.90
11083;DHT22;5595;50.186;8.468;2023-04-01T09:50:27;10.50;99.90
11083;DHT22;5595;50.186;8.468;2023-04-01T09:53:08;10.60;99.90
11083;DHT22;5595;50.186;8.468;2023-04-01T09:59:37;10.60;99.90
11083;DHT22;5595;50.186;8.468;2023-04-01T10:02:33;10.60;99.90
11083;DHT22;5595;50.186;8.468;2023-04-01T10:12:04;10.60;99.90
11083;DHT22;5595;50.186;8.468;2023-04-01T10:14:59;10.50;99.90
11083;DHT22;5595;50.186;8.468;2023-04-01T10:18:05;10.70;99.90
11083;DHT22;5595;50.186;8.468;2023-04-01T10:20:46;10.60;99.90
11083;DHT22;5595;50.186;8.468;2023-04-01T10:23:22;10.70;99.90
11083;DHT22;5595;50.186;8.468;2023-04-01T10:26:11;10.70;99.90
11083;DHT22;5595;50.186;8.468;2023-04-01T10:29:25;10.80;99.90
11083;DHT22;5595;50.186;8.468;2023-04-01T10:32:32;10.80;99.90
11083;DHT22;5595;50.186;8.468;2023-04-01T10:35:44;10.80;99.90
11083;DHT22;5595;50.186;8.468;2023-04-01T10:38:49;10.80;99.90
11083;DHT22;5595;50.186;8.468;2023-04-01T10:42:00;10.70;99.90
11083;DHT22;5595;50.186;8.468;2023-04-01T10:45:06;10.70;99.90
11083;DHT22;5595;50.186;8.468;2023-04-01T10:48:09;10.70;99.90
11083;DHT22;5595;50.186;8.468;2023-04-01T10:51:00;10.60;99.90
11083;DHT22;5595;50.186;8.468;2023-04-01T10:56:53;10.80;99.90
11083;DHT22;5595;50.186;8.468;2023-04-01T11:05:55;10.90;99.90
11083;DHT22;5595;50.186;8.468;2023-04-01T11:18:35;11.60;99.90
11083;DHT22;5595;50.186;8.468;2023-04-01T11:21:32;11.60;99.90
11083;DHT22;5595;50.186;8.468;2023-04-01T11:24:39;11.60;99.90
11083;DHT22;5595;50.186;8.468;2023-04-01T11:27:29;11.60;99.90
11083;DHT22;5595;50.186;8.468;2023-04-01T11:30:14;11.50;99.90
11083;DHT22;5595;50.186;8.468;2023-04-01T11:32:53;11.50;99.90
11083;DHT22;5595;50.186;8.468;2023-04-01T11:35:42;11.50;99.90
11083;DHT22;5595;50.186;8.468;2023-04-01T11:38:24;11.40;99.90
11083;DHT22;5595;50.186;8.468;2023-04-01T11:40:59;11.50;99.90
11083;DHT22;5595;50.186;8.468;2023-04-01T11:43:34;11.50;99.90
11083;DHT22;5595;50.186;8.468;2023-04-01T11:46:10;11.70;99.90
11083;DHT22;5595;50.186;8.468;2023-04-01T11:48:58;11.80;99.90
11083;DHT22;5595;50.186;8.468;2023-04-01T11:51:55;11.80;99.90
11083;DHT22;5595;50.186;8.468;2023-04-01T11:54:41;11.90;99.90
11083;DHT22;5595;50.186;8.468;2023-04-01T12:00:35;12.50;99.90
11083;DHT22;5595;50.186;8.468;2023-04-01T12:03:18;12.90;99.90
11083;DHT22;5595;50.186;8.468;2023-04-01T12:05:51;13.20;99.90
11083;DHT22;5595;50.186;8.468;2023-04-01T12:08:31;13.40;99.90
11083;DHT22;5595;50.186;8.468;2023-04-01T12:11:04;13.70;99.90
11083;DHT22;5595;50.186;8.468;2023-04-01T12:13:39;13.90;99.90
11083;DHT22;5595;50.186;8.468;2023-04-01T12:16:49;14.00;99.90
11083;DHT22;5595;50.186;8.468;2023-04-01T12:19:26;14.10;99.90
11083;DHT22;5595;50.186;8.468;2023-04-01T12:22:06;14.00;99.90
11083;DHT22;5595;50.186;8.468;2023-04-01T12:24:46;14.00;99.90
11083;DHT22;5595;50.186;8.468;2023-04-01T12:27:27;13.90;99.90
11083;DHT22;5595;50.186;8.468;2023-04-01T12:30:06;13.70;99.90
11083;DHT22;5595;50.186;8.468;2023-04-01T12:32:42;13.40;99.90
11083;DHT22;5595;50.186;8.468;2023-04-01T12:35:19;13.20;99.90
11083;DHT22;5595;50.186;8.468;2023-04-01T12:37:54;13.10;99.90
11083;DHT22;5595;50.186;8.468;2023-04-01T12:40:36;12.90;99.90
11083;DHT22;5595;50.186;8.468;2023-04-01T12:46:15;12.70;99.90
11083;DHT22;5595;50.186;8.468;2023-04-01T12:51:56;12.70;99.90
11083;DHT22;5595;50.186;8.468;2023-04-01T12:54:48;12.60;99.90
11083;DHT22;5595;50.186;8.468;2023-04-01T12:57:33;12.70;99.90
11083;DHT22;5595;50.186;8.468;2023-04-01T13:03:21;12.80;99.90
11083;DHT22;5595;50.186;8.468;2023-04-01T13:06:25;13.30;99.90
11083;DHT22;5595;50.186;8.468;2023-04-01T13:09:03;13.50;99.90
11083;DHT22;5595;50.186;8.468;2023-04-01T13:11:43;13.80;99.90
11083;DHT22;5595;50.186;8.468;2023-04-01T13:14:29;13.70;99.90
11083;DHT22;5595;50.186;8.468;2023-04-01T13:17:09;13.70;99.90
11083;DHT22;5595;50.186;8.468;2023-04-01T13:19:42;13.50;99.90
11083;DHT22;5595;50.186;8.468;2023-04-01T13:22:16;13.60;99.90
11083;DHT22;5595;50.186;8.468;2023-04-01T13:24:51;13.50;99.90
11083;DHT22;5595;50.186;8.468;2023-04-01T13:27:23;13.50;99.90
11083;DHT22;5595;50.186;8.468;2023-04-01T13:30:09;13.40;99.90
11083;DHT22;5595;50.186;8.468;2023-04-01T13:32:43;13.50;99.90
11083;DHT22;5595;50.186;8.468;2023-04-01T13:35:25;13.60;99.90
11083;DHT22;5595;50.186;8.468;2023-04-01T13:38:11;13.70;99.90
11083;DHT22;5595;50.186;8.468;2023-04-01T13:40:51;13.80;99.90
11083;DHT22;5595;50.186;8.468;2023-04-01T13:43:23;13.70;99.90
11083;DHT22;5595;50.186;8.468;2023-04-01T13:46:16;13.70;99.90
11083;DHT22;5595;50.186;8.468;2023-04-01T13:49:08;13.70;99.90
11083;DHT22;5595;50.186;8.468;2023-04-01T13:51:56;13.50;99.90
11083;DHT22;5595;50.186;8.468;2023-04-01T13:54:51;13.40;99.90
11083;DHT22;5595;50.186;8.468;2023-04-01T13:57:43;13.30;99.90
11083;DHT22;5595;50.186;8.468;2023-04-01T14:00:35;13.30;99.90
11083;DHT22;5595;50.186;8.468;2023-04-01T14:03:27;13.20;99.90
11083;DHT22;5595;50.186;8.468;2023-04-01T14:06:26;13.10;99.90
11083;DHT22;5595;50.186;8.468;2023-04-01T14:09:15;12.90;99.90
11083;DHT22;5595;50.186;8.468;2023-04-01T14:11:53;12.70;99.90
11083;DHT22;5595;50.186;8.468;2023-04-01T14:14:32;12.70;99.90
11083;DHT22;5595;50.186;8.468;2023-04-01T14:22:49;12.90;99.90
11083;DHT22;5595;50.186;8.468;2023-04-01T14:25:41;12.90;99.90
11083;DHT22;5595;50.186;8.468;2023-04-01T14:28:18;13.00;99.90
11083;DHT22;5595;50.186;8.468;2023-04-01T14:33:51;13.20;99.90
11083;DHT22;5595;50.186;8.468;2023-04-01T14:36:32;13.40;99.90
11083;DHT22;5595;50.186;8.468;2023-04-01T14:39:21;13.50;99.90
11083;DHT22;5595;50.186;8.468;2023-04-01T14:42:02;13.60;99.90
11083;DHT22;5595;50.186;8.468;2023-04-01T14:44:56;13.40;99.90
11083;DHT22;5595;50.186;8.468;2023-04-01T14:47:43;13.40;99.90
11083;DHT22;5595;50.186;8.468;2023-04-01T14:50:14;13.20;99.90
11083;DHT22;5595;50.186;8.468;2023-04-01T14:52:44;13.00;99.90
11083;DHT22;5595;50.186;8.468;2023-04-01T14:55:25;13.10;99.90
11083;DHT22;5595;50.186;8.468;2023-04-01T14:58:09;13.10;99.90
11083;DHT22;5595;50.186;8.468;2023-04-01T15:00:49;13.30;99.90
11083;DHT22;5595;50.186;8.468;2023-04-01T15:03:25;13.20;99.90
11083;DHT22;5595;50.186;8.468;2023-04-01T15:05:56;13.20;99.90
11083;DHT22;5595;50.186;8.468;2023-04-01T15:08:28;13.00;99.90
11083;DHT22;5595;50.186;8.468;2023-04-01T15:11:11;13.00;99.90
11083;DHT22;5595;50.186;8.468;2023-04-01T15:16:49;12.80;99.90
11083;DHT22;5595;50.186;8.468;2023-04-01T15:19:28;12.60;99.90
11083;DHT22;5595;50.186;8.468;2023-04-01T15:22:08;12.60;99.90
11083;DHT22;5595;50.186;8.468;2023-04-01T15:24:46;12.60;99.90
11083;DHT22;5595;50.186;8.468;2023-04-01T15:27:23;12.50;99.90
11083;DHT22;5595;50.186;8.468;2023-04-01T15:30:02;12.50;99.90
11083;DHT22;5595;50.186;8.468;2023-04-01T15:32:44;12.40;99.90
11083;DHT22;5595;50.186;8.468;2023-04-01T15:35:24;12.40;99.90
11083;DHT22;5595;50.186;8.468;2023-04-01T15:37:56;12.40;99.90
11083;DHT22;5595;50.186;8.468;2023-04-01T15:40:28;12.40;99.90
11083;DHT22;5595;50.186;8.468;2023-04-01T15:43:07;12.40;99.90
11083;DHT22;5595;50.186;8.468;2023-04-01T15:45:45;12.50;99.90
11083;DHT22;5595;50.186;8.468;2023-04-01T15:48:22;12.60;99.90
11083;DHT22;5595;50.186;8.468;2023-04-01T15:51:07;12.70;99.90
11083;DHT22;5595;50.186;8.468;2023-04-01T15:53:56;12.80;99.90
11083;DHT22;5595;50.186;8.468;2023-04-01T15:56:36;12.90;99.90
11083;DHT22;5595;50.186;8.468;2023-04-01T15:59:21;13.00;99.90
11083;DHT22;5595;50.186;8.468;2023-04-01T16:01:55;13.00;99.90
11083;DHT22;5595;50.186;8.468;2023-04-01T16:04:36;12.90;99.90
11083;DHT22;5595;50.186;8.468;2023-04-01T16:07:21;12.70;99.90
11083;DHT22;5595;50.186;8.468;2023-04-01T16:10:16;12.80;99.90
11083;DHT22;5595;50.186;8.468;2023-04-01T16:12:58;12.70;99.90
11083;DHT22;5595;50.186;8.468;2023-04-01T16:15:33;12.60;99.90
11083;DHT22;5595;50.186;8.468;2023-04-01T16:18:28;12.60;99.90
11083;DHT22;5595;50.186;8.468;2023-04-01T16:21:02;12.80;99.90
11083;DHT22;5595;50.186;8.468;2023-04-01T16:23:37;12.90;99.90
11083;DHT22;5595;50.186;8.468;2023-04-01T16:26:13;13.00;99.90
11083;DHT22;5595;50.186;8.468;2023-04-01T16:28:50;12.90;99.90
11083;DHT22;5595;50.186;8.468;2023-04-01T16:31:29;12.90;99.90
11083;DHT22;5595;50.186;8.468;2023-04-01T16:34:02;12.90;99.90
11083;DHT22;5595;50.186;8.468;2023-04-01T16:36:37;12.80;99.90
11083;DHT22;5595;50.186;8.468;2023-04-01T16:39:27;12.70;99.90
11083;DHT22;5595;50.186;8.468;2023-04-01T16:42:11;12.70;99.90
11083;DHT22;5595;50.186;8.468;2023-04-01T16:44:48;12.50;99.90
11083;DHT22;5595;50.186;8.468;2023-04-01T16:47:19;12.30;99.90
11083;DHT22;5595;50.186;8.468;2023-04-01T16:49:58;12.10;99.90
11083;DHT22;5595;50.186;8.468;2023-04-01T16:52:53;12.00;99.90
11083;DHT22;5595;50.186;8.468;2023-04-01T16:55:34;11.90;99.90
11083;DHT22;5595;50.186;8.468;2023-04-01T16:58:14;11.80;99.90
11083;DHT22;5595;50.186;8.468;2023-04-01T17:00:49;11.80;99.90
11083;DHT22;5595;50.186;8.468;2023-04-01T17:03:22;11.90;99.90
11083;DHT22;5595;50.186;8.468;2023-04-01T17:06:03;11.80;99.90
11083;DHT22;5595;50.186;8.468;2023-04-01T17:08:50;11.60;99.90
11083;DHT22;5595;50.186;8.468;2023-04-01T17:11:27;11.60;99.90
11083;DHT22;5595;50.186;8.468;2023-04-01T17:14:02;11.50;99.90
11083;DHT22;5595;50.186;8.468;2023-04-01T17:17:15;11.50;99.90
11083;DHT22;5595;50.186;8.468;2023-04-01T17:20:01;11.40;99.90
11083;DHT22;5595;50.186;8.468;2023-04-01T17:22:36;11.50;99.90
11083;DHT22;5595;50.186;8.468;2023-04-01T17:25:19;11.50;99.90
11083;DHT22;5595;50.186;8.468;2023-04-01T17:27:55;11.30;99.90
11083;DHT22;5595;50.186;8.468;2023-04-01T17:30:37;11.30;99.90
11083;DHT22;5595;50.186;8.468;2023-04-01T17:33:19;11.30;99.90
11083;DHT22;5595;50.186;8.468;2023-04-01T17:36:04;11.20;99.90
11083;DHT22;5595;50.186;8.468;2023-04-01T17:38:58;11.10;99.90
11083;DHT22;5595;50.186;8.468;2023-04-01T17:41:36;11.10;99.90
11083;DHT22;5595;50.186;8.468;2023-04-01T17:44:28;11.00;99.90
11083;DHT22;5595;50.186;8.468;2023-04-01T17:47:23;11.00;99.90
11083;DHT22;5595;50.186;8.468;2023-04-01T17:50:05;11.00;99.90
11083;DHT22;5595;50.186;8.468;2023-04-01T17:52:41;11.00;99.90
11083;DHT22;5595;50.186;8.468;2023-04-01T17:55:37;10.90;99.90
11083;DHT22;5595;50.186;8.468;2023-04-01T17:58:11;11.00;99.90
11083;DHT22;5595;50.186;8.468;2023-04-01T18:00:55;10.80;99.90
11083;DHT22;5595;50.186;8.468;2023-04-01T18:03:53;10.90;99.90
11083;DHT22;5595;50.186;8.468;2023-04-01T18:06:27;11.00;99.90
11083;DHT22;5595;50.186;8.468;2023-04-01T18:09:00;10.90;99.90